Time;durP1;ratioP1;P1;durP2;ratioP2;P2;SDS_P1;SDS_P2;PMS_P1;PMS_P2;Temp;Humidity;BMP_temperature;BMP_pressure;BME280_temperature;BME280_humidity;BME280_pressure;Samples;Min_cycle;Max_cycle;Signal;HPM_P1;HPM_P2
2022/05/29 00:01:41;;;;;;;;;;;10.20;70.20;;;;;;5007461;28;20286;-81
2022/05/29 00:04:07;;;;;;;;;;;10.10;70.60;;;;;;4993528;28;20351;-81
2022/05/29 00:06:37;;;;;;;;;;;10.20;70.50;;;;;;4992094;28;19925;-80
2022/05/29 00:09:02;;;;;;;;;;;10.20;70.20;;;;;;4997336;28;19914;-81
2022/05/29 00:11:28;;;;;;;;;;;10.10;70.60;;;;;;4999351;28;20433;-81
2022/05/29 00:13:53;;;;;;;;;;;10.10;70.60;;;;;;4999271;28;19953;-82
2022/05/29 00:16:19;;;;;;;;;;;10.10;71.10;;;;;;4994275;28;19932;-81
2022/05/29 00:18:44;;;;;;;;;;;10.20;70.50;;;;;;4995153;28;19913;-81
2022/05/29 00:21:10;;;;;;;;;;;10.10;70.50;;;;;;5004282;28;19921;-81
2022/05/29 00:23:39;;;;;;;;;;;10.10;70.50;;;;;;4993397;28;19965;-81
2022/05/29 00:26:05;;;;;;;;;;;10.10;71.00;;;;;;4994565;28;19930;-81
2022/05/29 00:28:30;;;;;;;;;;;9.90;71.10;;;;;;4991387;28;20342;-80
2022/05/29 00:30:56;;;;;;;;;;;10.00;71.40;;;;;;4989377;28;19914;-81
2022/05/29 00:33:21;;;;;;;;;;;9.90;71.30;;;;;;5009066;28;19921;-81
2022/05/29 00:35:47;;;;;;;;;;;9.90;71.40;;;;;;4993929;28;20002;-81
2022/05/29 00:38:13;;;;;;;;;;;9.90;71.70;;;;;;4996083;28;19949;-80
2022/05/29 00:41:02;;;;;;;;;;;9.90;71.60;;;;;;4992780;28;19918;-81
2022/05/29 00:43:27;;;;;;;;;;;9.90;71.60;;;;;;4971154;28;20021;-81
2022/05/29 00:45:55;;;;;;;;;;;9.80;71.90;;;;;;5003061;28;20027;-82
2022/05/29 00:48:21;;;;;;;;;;;9.80;71.90;;;;;;5009247;28;19972;-82
2022/05/29 00:50:47;;;;;;;;;;;9.80;71.90;;;;;;4992505;28;19921;-81
2022/05/29 00:53:14;;;;;;;;;;;9.80;72.20;;;;;;4996917;28;19961;-81
2022/05/29 00:55:41;;;;;;;;;;;9.80;72.90;;;;;;5007263;28;19971;-81
2022/05/29 00:58:06;;;;;;;;;;;9.70;73.10;;;;;;5011857;28;19925;-81
2022/05/29 01:00:32;;;;;;;;;;;9.70;73.50;;;;;;5005882;28;20016;-80
2022/05/29 01:03:01;;;;;;;;;;;9.60;73.50;;;;;;4995829;28;19968;-80
2022/05/29 01:05:29;;;;;;;;;;;9.60;74.30;;;;;;5000377;28;19921;-80
2022/05/29 01:07:58;;;;;;;;;;;9.60;74.70;;;;;;4993477;28;19936;-79
2022/05/29 01:10:28;;;;;;;;;;;9.70;74.50;;;;;;4992279;28;20246;-81
2022/05/29 01:13:14;;;;;;;;;;;9.60;73.80;;;;;;5011209;28;20090;-80
2022/05/29 01:15:52;;;;;;;;;;;9.70;73.50;;;;;;4993023;28;19939;-80
2022/05/29 01:18:30;;;;;;;;;;;9.70;73.70;;;;;;5029405;28;20023;-82
2022/05/29 01:21:21;;;;;;;;;;;9.60;73.60;;;;;;5015314;28;20382;-81
2022/05/29 01:24:05;;;;;;;;;;;9.60;73.60;;;;;;5002504;28;19940;-80
2022/05/29 01:26:39;;;;;;;;;;;9.50;74.10;;;;;;4999142;28;20306;-80
2022/05/29 01:29:06;;;;;;;;;;;9.50;74.30;;;;;;4994019;28;20261;-80
2022/05/29 01:31:47;;;;;;;;;;;9.60;74.20;;;;;;5007508;28;19924;-80
2022/05/29 01:34:12;;;;;;;;;;;9.50;74.40;;;;;;4998435;28;20203;-80
2022/05/29 01:36:51;;;;;;;;;;;9.50;74.60;;;;;;5001259;28;19945;-80
2022/05/29 01:39:23;;;;;;;;;;;9.50;74.20;;;;;;4998727;28;20401;-80
2022/05/29 01:41:54;;;;;;;;;;;9.50;74.20;;;;;;4991706;28;19918;-80
2022/05/29 01:44:26;;;;;;;;;;;9.30;74.90;;;;;;4992175;28;19919;-80
2022/05/29 01:46:54;;;;;;;;;;;9.30;75.20;;;;;;4999092;28;19918;-82
2022/05/29 01:49:26;;;;;;;;;;;9.20;75.90;;;;;;4990818;28;19940;-80
2022/05/29 01:51:55;;;;;;;;;;;9.30;76.10;;;;;;4990462;28;19921;-82
2022/05/29 01:54:27;;;;;;;;;;;9.20;76.20;;;;;;4990821;28;19914;-81
2022/05/29 01:56:55;;;;;;;;;;;9.20;76.10;;;;;;5007239;28;19924;-83
2022/05/29 01:59:21;;;;;;;;;;;9.20;76.90;;;;;;5006033;28;19914;-82
2022/05/29 02:01:57;;;;;;;;;;;9.30;75.90;;;;;;4995882;28;20263;-81
2022/05/29 02:04:24;;;;;;;;;;;9.50;75.00;;;;;;4991518;28;19917;-84
2022/05/29 02:09:38;;;;;;;;;;;9.50;74.90;;;;;;5007982;28;19929;-82
2022/05/29 02:12:04;;;;;;;;;;;9.30;75.40;;;;;;4992573;28;19921;-81
2022/05/29 02:14:33;;;;;;;;;;;9.30;75.90;;;;;;5000001;28;19917;-80
2022/05/29 02:17:04;;;;;;;;;;;9.30;76.00;;;;;;4992238;28;20353;-80
2022/05/29 02:19:33;;;;;;;;;;;9.10;76.50;;;;;;5005472;28;19914;-81
2022/05/29 02:22:10;;;;;;;;;;;9.10;76.90;;;;;;5008108;28;19922;-80
2022/05/29 02:24:38;;;;;;;;;;;9.10;76.70;;;;;;4993352;28;19925;-80
2022/05/29 02:27:07;;;;;;;;;;;9.00;77.00;;;;;;5012632;28;19921;-80
2022/05/29 02:29:33;;;;;;;;;;;9.10;77.00;;;;;;4988433;28;19949;-80
2022/05/29 02:32:08;;;;;;;;;;;9.10;76.90;;;;;;5002748;28;19914;-81
2022/05/29 02:34:33;;;;;;;;;;;9.00;77.10;;;;;;4991147;28;19917;-81
2022/05/29 02:37:08;;;;;;;;;;;9.00;77.40;;;;;;4998133;28;19914;-81
2022/05/29 02:39:53;;;;;;;;;;;9.00;77.70;;;;;;4996214;28;20009;-81
2022/05/29 02:42:19;;;;;;;;;;;9.00;77.20;;;;;;5021601;28;20387;-78
2022/05/29 02:44:59;;;;;;;;;;;9.00;77.30;;;;;;4988936;28;20005;-78
2022/05/29 02:47:29;;;;;;;;;;;9.00;77.70;;;;;;5006970;28;20016;-78
2022/05/29 02:50:14;;;;;;;;;;;8.90;77.90;;;;;;4992408;28;19918;-78
2022/05/29 02:52:40;;;;;;;;;;;8.90;77.90;;;;;;5011121;28;20510;-77
2022/05/29 02:55:06;;;;;;;;;;;8.90;77.90;;;;;;4989227;28;19960;-77
2022/05/29 02:57:33;;;;;;;;;;;8.90;78.40;;;;;;5021258;28;19914;-77
2022/05/29 03:00:03;;;;;;;;;;;8.80;78.40;;;;;;4993279;28;19917;-78
2022/05/29 03:02:36;;;;;;;;;;;8.90;78.20;;;;;;5005152;28;19921;-78
2022/05/29 03:05:13;;;;;;;;;;;8.90;78.20;;;;;;5009993;28;19918;-77
2022/05/29 03:07:41;;;;;;;;;;;8.80;78.60;;;;;;5004240;28;20071;-77
2022/05/29 03:10:19;;;;;;;;;;;8.90;78.50;;;;;;5019641;28;19926;-77
2022/05/29 03:12:47;;;;;;;;;;;8.80;78.50;;;;;;4990258;28;19914;-77
2022/05/29 03:15:12;;;;;;;;;;;8.80;79.00;;;;;;5002994;28;19917;-78
2022/05/29 03:17:45;;;;;;;;;;;8.80;78.90;;;;;;4991278;28;20339;-78
2022/05/29 03:20:19;;;;;;;;;;;8.90;78.70;;;;;;5008169;28;19913;-78
2022/05/29 03:22:57;;;;;;;;;;;8.90;79.00;;;;;;4989948;28;19921;-77
2022/05/29 03:25:25;;;;;;;;;;;8.80;78.80;;;;;;5004120;28;20523;-78
2022/05/29 03:27:52;;;;;;;;;;;8.80;79.20;;;;;;5003695;28;20008;-78
2022/05/29 03:30:21;;;;;;;;;;;8.80;79.40;;;;;;5006378;28;19914;-78
2022/05/29 03:32:47;;;;;;;;;;;8.70;79.60;;;;;;4996349;28;19921;-77
2022/05/29 03:35:17;;;;;;;;;;;8.80;79.80;;;;;;5009076;28;19918;-77
2022/05/29 03:37:43;;;;;;;;;;;8.90;79.60;;;;;;5007825;28;20031;-78
2022/05/29 03:40:09;;;;;;;;;;;8.90;79.60;;;;;;5015475;28;20087;-77
2022/05/29 03:42:35;;;;;;;;;;;8.90;79.80;;;;;;5016352;28;19926;-78
2022/05/29 03:45:00;;;;;;;;;;;9.00;79.70;;;;;;5002740;28;19917;-77
2022/05/29 03:47:27;;;;;;;;;;;9.10;79.30;;;;;;4993663;28;19914;-78
2022/05/29 03:49:52;;;;;;;;;;;9.10;79.70;;;;;;4992840;28;19925;-77
2022/05/29 03:52:18;;;;;;;;;;;9.10;79.60;;;;;;5009186;28;20016;-77
2022/05/29 03:54:43;;;;;;;;;;;9.10;79.50;;;;;;5011458;28;19914;-77
2022/05/29 03:57:09;;;;;;;;;;;9.20;79.50;;;;;;5014702;28;19913;-77
2022/05/29 03:59:34;;;;;;;;;;;9.20;79.50;;;;;;5003966;28;19922;-77
2022/05/29 04:02:00;;;;;;;;;;;9.30;79.60;;;;;;5023764;28;19914;-77
2022/05/29 04:04:25;;;;;;;;;;;9.40;79.40;;;;;;5008474;28;20405;-77
2022/05/29 04:06:50;;;;;;;;;;;9.50;79.10;;;;;;4995162;28;19914;-77
2022/05/29 04:12:13;;;;;;;;;;;9.60;78.70;;;;;;4997683;28;20286;-78
2022/05/29 04:14:40;;;;;;;;;;;9.70;78.70;;;;;;4995169;28;19949;-77
2022/05/29 04:17:07;;;;;;;;;;;9.70;78.50;;;;;;5012068;28;20340;-77
2022/05/29 04:19:32;;;;;;;;;;;9.70;78.40;;;;;;5009983;28;20511;-77
2022/05/29 04:21:58;;;;;;;;;;;9.80;78.40;;;;;;5025145;28;19932;-77
2022/05/29 04:24:23;;;;;;;;;;;9.80;78.20;;;;;;5009891;28;19926;-77
2022/05/29 04:26:49;;;;;;;;;;;9.90;77.80;;;;;;5005692;28;20181;-77
2022/05/29 04:29:15;;;;;;;;;;;9.90;77.90;;;;;;4999948;28;19917;-77
2022/05/29 04:34:26;;;;;;;;;;;9.90;78.10;;;;;;4987528;28;19924;-77
2022/05/29 04:36:52;;;;;;;;;;;9.90;78.20;;;;;;5000857;28;19957;-78
2022/05/29 04:39:17;;;;;;;;;;;10.00;78.10;;;;;;4995817;28;19980;-78
2022/05/29 04:41:43;;;;;;;;;;;10.00;78.20;;;;;;5013520;28;20358;-77
2022/05/29 04:44:08;;;;;;;;;;;10.00;78.40;;;;;;4990616;28;20409;-77
2022/05/29 04:46:34;;;;;;;;;;;10.00;78.50;;;;;;4997154;28;19922;-77
2022/05/29 04:48:59;;;;;;;;;;;10.10;78.30;;;;;;4992392;28;19950;-78
2022/05/29 04:51:25;;;;;;;;;;;10.20;78.30;;;;;;5022572;28;19921;-78
2022/05/29 04:53:50;;;;;;;;;;;10.20;78.10;;;;;;4992687;28;20392;-77
2022/05/29 04:56:16;;;;;;;;;;;10.30;77.80;;;;;;4991741;28;19913;-78
2022/05/29 04:58:41;;;;;;;;;;;10.30;77.90;;;;;;5008189;28;20429;-76
2022/05/29 05:01:07;;;;;;;;;;;10.50;77.70;;;;;;4991138;28;19914;-77
2022/05/29 05:03:32;;;;;;;;;;;10.50;77.50;;;;;;5007230;28;20306;-77
2022/05/29 05:05:58;;;;;;;;;;;10.40;77.90;;;;;;4991940;28;19918;-78
2022/05/29 05:08:24;;;;;;;;;;;10.50;79.40;;;;;;5006823;28;19929;-78
2022/05/29 05:10:49;;;;;;;;;;;10.60;79.40;;;;;;4991548;28;19928;-78
2022/05/29 05:13:15;;;;;;;;;;;10.60;80.40;;;;;;5010403;28;19936;-78
2022/05/29 05:15:41;;;;;;;;;;;10.60;80.70;;;;;;4991151;28;20855;-79
2022/05/29 05:18:06;;;;;;;;;;;10.40;80.70;;;;;;4994266;28;20378;-79
2022/05/29 05:20:33;;;;;;;;;;;10.30;80.80;;;;;;5008297;28;19988;-78
2022/05/29 05:22:59;;;;;;;;;;;10.40;81.90;;;;;;4996517;28;20433;-79
2022/05/29 05:25:25;;;;;;;;;;;10.50;80.90;;;;;;5000689;28;19949;-77
2022/05/29 05:27:51;;;;;;;;;;;10.40;81.80;;;;;;4996136;28;19924;-79
2022/05/29 05:30:16;;;;;;;;;;;10.50;82.30;;;;;;5000043;28;19921;-79
2022/05/29 05:32:42;;;;;;;;;;;10.30;81.90;;;;;;5010048;28;19924;-79
2022/05/29 05:35:08;;;;;;;;;;;10.30;83.30;;;;;;4993095;28;19937;-79
2022/05/29 05:37:35;;;;;;;;;;;10.50;83.30;;;;;;5009786;28;20354;-79
2022/05/29 05:40:05;;;;;;;;;;;10.50;83.70;;;;;;5004176;28;20562;-79
2022/05/29 05:42:31;;;;;;;;;;;10.50;83.10;;;;;;5007707;28;19933;-78
2022/05/29 05:44:58;;;;;;;;;;;10.40;83.70;;;;;;4991972;28;22306;-77
2022/05/29 05:47:24;;;;;;;;;;;10.50;83.80;;;;;;5007141;28;19953;-79
2022/05/29 05:49:50;;;;;;;;;;;10.50;83.90;;;;;;5005821;28;19918;-79
2022/05/29 05:52:16;;;;;;;;;;;10.60;83.60;;;;;;4994348;28;19948;-79
2022/05/29 05:54:42;;;;;;;;;;;10.60;83.70;;;;;;5004187;28;19918;-79
2022/05/29 05:57:07;;;;;;;;;;;10.70;84.10;;;;;;5007394;28;19998;-79
2022/05/29 05:59:37;;;;;;;;;;;10.80;83.70;;;;;;5005126;28;19929;-79
2022/05/29 06:02:03;;;;;;;;;;;10.80;82.80;;;;;;5001782;28;20021;-78
2022/05/29 06:04:28;;;;;;;;;;;10.80;82.20;;;;;;5001878;28;20000;-79
2022/05/29 06:06:54;;;;;;;;;;;10.90;82.90;;;;;;4990266;28;19914;-78
2022/05/29 06:09:21;;;;;;;;;;;11.00;82.70;;;;;;4988729;28;19914;-80
2022/05/29 06:11:47;;;;;;;;;;;11.00;82.70;;;;;;5006667;28;19980;-79
2022/05/29 06:14:12;;;;;;;;;;;11.20;82.60;;;;;;4990337;28;20378;-79
2022/05/29 06:16:38;;;;;;;;;;;11.30;82.40;;;;;;4990916;28;19921;-79
2022/05/29 06:19:05;;;;;;;;;;;11.30;82.30;;;;;;5006533;28;20060;-79
2022/05/29 06:21:30;;;;;;;;;;;11.50;82.40;;;;;;4990336;28;19914;-78
2022/05/29 06:23:56;;;;;;;;;;;11.60;81.20;;;;;;4994390;28;19921;-79
2022/05/29 06:26:21;;;;;;;;;;;11.60;81.10;;;;;;5004939;28;19910;-78
2022/05/29 06:28:47;;;;;;;;;;;11.60;80.60;;;;;;4990599;28;20008;-77
2022/05/29 06:31:12;;;;;;;;;;;11.50;81.10;;;;;;4988141;28;19914;-77
2022/05/29 06:33:38;;;;;;;;;;;11.40;81.20;;;;;;5008777;28;20278;-78
2022/05/29 06:36:07;;;;;;;;;;;11.40;81.20;;;;;;4993593;28;20008;-78
2022/05/29 06:38:33;;;;;;;;;;;11.40;81.50;;;;;;5005147;28;20358;-77
2022/05/29 06:40:59;;;;;;;;;;;11.40;81.10;;;;;;4988553;28;19937;-78
2022/05/29 06:43:24;;;;;;;;;;;11.50;82.30;;;;;;4983479;28;19921;-77
2022/05/29 06:45:55;;;;;;;;;;;11.50;82.10;;;;;;5005993;28;19921;-78
2022/05/29 06:48:21;;;;;;;;;;;11.60;81.20;;;;;;4990799;28;19914;-78
2022/05/29 06:50:46;;;;;;;;;;;11.60;81.40;;;;;;5004231;28;19969;-77
2022/05/29 06:53:12;;;;;;;;;;;11.60;80.80;;;;;;4993027;28;19914;-77
2022/05/29 06:55:37;;;;;;;;;;;11.70;81.00;;;;;;4981271;28;20394;-77
2022/05/29 06:58:02;;;;;;;;;;;11.90;80.40;;;;;;5002464;28;19933;-78
2022/05/29 07:08:44;;;;;;;;;;;12.10;79.30;;;;;;4996083;28;19952;-80
2022/05/29 07:11:21;;;;;;;;;;;12.10;79.20;;;;;;5011173;28;19921;-79
2022/05/29 07:13:47;;;;;;;;;;;12.10;78.70;;;;;;4992104;28;19914;-79
2022/05/29 07:16:15;;;;;;;;;;;12.00;79.60;;;;;;4997945;28;19936;-79
2022/05/29 07:18:40;;;;;;;;;;;12.00;79.60;;;;;;4990339;28;19917;-81
2022/05/29 07:21:06;;;;;;;;;;;11.90;79.20;;;;;;4993142;28;19914;-80
2022/05/29 07:23:32;;;;;;;;;;;12.00;79.20;;;;;;5015623;28;19917;-82
2022/05/29 07:25:58;;;;;;;;;;;12.10;78.60;;;;;;5009681;28;19979;-79
2022/05/29 07:28:24;;;;;;;;;;;12.20;79.70;;;;;;4995234;28;19929;-80
2022/05/29 07:30:50;;;;;;;;;;;12.10;79.60;;;;;;5007502;28;20001;-82
2022/05/29 07:33:16;;;;;;;;;;;12.10;80.40;;;;;;5002782;28;19949;-79
2022/05/29 07:35:41;;;;;;;;;;;12.10;80.40;;;;;;4995419;28;19922;-78
2022/05/29 07:38:07;;;;;;;;;;;12.10;80.50;;;;;;4991181;28;19936;-81
2022/05/29 07:40:32;;;;;;;;;;;12.10;80.40;;;;;;5011082;28;19975;-78
2022/05/29 07:45:43;;;;;;;;;;;12.50;78.40;;;;;;4986844;28;19976;-79
2022/05/29 07:48:08;;;;;;;;;;;12.50;78.80;;;;;;4994817;28;19914;-81
2022/05/29 07:50:34;;;;;;;;;;;12.60;78.50;;;;;;5008710;28;19929;-80
2022/05/29 07:52:59;;;;;;;;;;;12.70;77.90;;;;;;4991285;28;20293;-80
2022/05/29 07:55:25;;;;;;;;;;;12.80;79.70;;;;;;5003213;28;19918;-80
2022/05/29 07:57:51;;;;;;;;;;;12.80;77.20;;;;;;5019402;28;20532;-79
2022/05/29 08:00:17;;;;;;;;;;;12.70;77.30;;;;;;4989823;28;20013;-81
2022/05/29 08:02:42;;;;;;;;;;;13.00;77.20;;;;;;5008807;28;19913;-81
2022/05/29 08:05:09;;;;;;;;;;;13.20;76.20;;;;;;5006755;28;20282;-81
2022/05/29 08:07:35;;;;;;;;;;;13.40;73.60;;;;;;4993457;28;19918;-80
2022/05/29 08:10:00;;;;;;;;;;;13.30;75.40;;;;;;4994500;28;19925;-80
2022/05/29 08:12:26;;;;;;;;;;;13.40;75.00;;;;;;4988814;28;20001;-81
2022/05/29 08:14:51;;;;;;;;;;;13.40;73.20;;;;;;4993773;28;19917;-81
2022/05/29 08:17:17;;;;;;;;;;;13.30;73.70;;;;;;5023539;28;19914;-80
2022/05/29 08:19:42;;;;;;;;;;;13.10;74.90;;;;;;5014468;28;19925;-81
2022/05/29 08:22:08;;;;;;;;;;;12.80;73.30;;;;;;5001134;28;19960;-79
2022/05/29 08:32:58;;;;;;;;;;;12.60;75.10;;;;;;4995812;28;19932;-79
2022/05/29 08:35:24;;;;;;;;;;;12.60;76.60;;;;;;5001306;28;19918;-79
2022/05/29 08:37:49;;;;;;;;;;;12.60;73.80;;;;;;4996236;28;19917;-79
2022/05/29 08:40:15;;;;;;;;;;;12.50;74.00;;;;;;5017433;28;20378;-79
2022/05/29 08:42:40;;;;;;;;;;;12.50;76.40;;;;;;5005814;28;19929;-79
2022/05/29 08:45:07;;;;;;;;;;;12.80;77.10;;;;;;5008476;28;19972;-79
2022/05/29 08:47:33;;;;;;;;;;;13.20;74.30;;;;;;4991645;28;20516;-79
2022/05/29 08:49:58;;;;;;;;;;;13.50;74.10;;;;;;4992667;28;19914;-79
2022/05/29 08:52:38;;;;;;;;;;;13.60;72.00;;;;;;5010137;28;19914;-80
2022/05/29 08:55:09;;;;;;;;;;;13.60;73.20;;;;;;5006086;28;19921;-78
2022/05/29 08:57:35;;;;;;;;;;;13.30;72.60;;;;;;4991003;28;19929;-79
2022/05/29 09:00:04;;;;;;;;;;;13.20;75.80;;;;;;4992958;28;20549;-79
2022/05/29 09:02:36;;;;;;;;;;;13.30;74.20;;;;;;5006687;28;19922;-78
2022/05/29 09:05:19;;;;;;;;;;;13.40;73.40;;;;;;4987486;28;19932;-79
2022/05/29 09:07:45;;;;;;;;;;;13.40;75.30;;;;;;4985468;28;19914;-78
2022/05/29 09:10:10;;;;;;;;;;;13.60;73.60;;;;;;5019740;28;19921;-78
2022/05/29 09:12:47;;;;;;;;;;;13.90;72.10;;;;;;4998989;28;20004;-79
2022/05/29 09:15:15;;;;;;;;;;;14.10;71.50;;;;;;5028484;28;19914;-79
2022/05/29 09:17:49;;;;;;;;;;;14.10;70.90;;;;;;4998176;28;19920;-79
2022/05/29 09:20:26;;;;;;;;;;;14.40;69.80;;;;;;4987960;28;19944;-79
2022/05/29 09:22:54;;;;;;;;;;;14.60;70.10;;;;;;5025770;28;20081;-78
2022/05/29 09:25:31;;;;;;;;;;;14.60;66.70;;;;;;5009083;28;19988;-77
2022/05/29 09:28:11;;;;;;;;;;;14.40;65.50;;;;;;4988152;28;19910;-79
2022/05/29 09:30:38;;;;;;;;;;;14.00;67.40;;;;;;4993354;28;19933;-81
2022/05/29 09:33:20;;;;;;;;;;;12.90;73.30;;;;;;4986429;28;19914;-80
2022/05/29 09:35:49;;;;;;;;;;;12.20;76.40;;;;;;5020384;28;20373;-81
2022/05/29 09:38:24;;;;;;;;;;;11.50;80.20;;;;;;5014258;28;19910;-81
2022/05/29 09:41:04;;;;;;;;;;;11.50;81.40;;;;;;5012905;28;20041;-81
2022/05/29 09:43:30;;;;;;;;;;;11.40;83.70;;;;;;5008551;28;20282;-81
2022/05/29 09:46:15;;;;;;;;;;;11.40;84.20;;;;;;5002924;28;19914;-88
2022/05/29 09:51:28;;;;;;;;;;;11.30;84.70;;;;;;4996138;28;19954;-86
2022/05/29 09:53:56;;;;;;;;;;;11.60;84.90;;;;;;5013780;28;20314;-81
2022/05/29 09:56:24;;;;;;;;;;;11.60;85.50;;;;;;5002322;28;19913;-80
2022/05/29 09:58:55;;;;;;;;;;;11.60;85.20;;;;;;4995916;28;19914;-82
2022/05/29 10:01:27;;;;;;;;;;;11.80;85.30;;;;;;5007143;28;19910;-80
2022/05/29 10:03:54;;;;;;;;;;;12.00;85.70;;;;;;4992247;28;19941;-81
2022/05/29 10:06:42;;;;;;;;;;;12.30;84.50;;;;;;5006919;28;19918;-81
2022/05/29 10:09:16;;;;;;;;;;;12.60;84.90;;;;;;5007078;28;20409;-82
2022/05/29 10:11:43;;;;;;;;;;;13.00;82.20;;;;;;5014721;28;19918;-81
2022/05/29 10:14:17;;;;;;;;;;;13.20;80.70;;;;;;5023220;28;19913;-80
2022/05/29 10:16:43;;;;;;;;;;;13.40;81.80;;;;;;4994356;28;20014;-81
2022/05/29 10:19:10;;;;;;;;;;;13.60;79.70;;;;;;5010315;28;19917;-82
2022/05/29 10:21:43;;;;;;;;;;;13.60;79.20;;;;;;5018680;28;19910;-80
2022/05/29 10:24:09;;;;;;;;;;;13.70;81.10;;;;;;5019080;28;19972;-82
2022/05/29 10:26:36;;;;;;;;;;;14.00;80.40;;;;;;5006008;28;19925;-81
2022/05/29 10:29:10;;;;;;;;;;;14.00;76.90;;;;;;5021383;28;19986;-82
2022/05/29 10:31:38;;;;;;;;;;;14.10;75.60;;;;;;5023721;28;19922;-80
2022/05/29 10:34:09;;;;;;;;;;;14.30;78.10;;;;;;5038333;28;19913;-80
2022/05/29 10:36:35;;;;;;;;;;;14.40;77.20;;;;;;5007034;28;19930;-79
2022/05/29 10:39:20;;;;;;;;;;;14.30;71.90;;;;;;5008152;28;19913;-81
2022/05/29 10:41:46;;;;;;;;;;;14.10;74.10;;;;;;5014388;28;19941;-78
2022/05/29 10:44:14;;;;;;;;;;;14.00;75.90;;;;;;4991041;28;19925;-78
2022/05/29 10:46:41;;;;;;;;;;;13.60;76.30;;;;;;5004526;28;19915;-79
2022/05/29 10:49:07;;;;;;;;;;;13.60;75.60;;;;;;4994341;28;20444;-78
2022/05/29 10:51:36;;;;;;;;;;;13.70;78.20;;;;;;4996986;28;19914;-77
2022/05/29 10:54:09;;;;;;;;;;;13.80;79.20;;;;;;4989381;28;19920;-78
2022/05/29 10:56:44;;;;;;;;;;;14.00;76.90;;;;;;4997452;28;19928;-81
2022/05/29 10:59:42;;;;;;;;;;;14.10;76.30;;;;;;5016362;28;20342;-80
2022/05/29 11:05:32;;;;;;;;;;;14.40;75.30;;;;;;5003391;28;20002;-80
2022/05/29 11:08:07;;;;;;;;;;;14.60;71.00;;;;;;5004382;28;20000;-80
2022/05/29 11:10:40;;;;;;;;;;;14.70;73.00;;;;;;5034452;28;19914;-80
2022/05/29 11:13:24;;;;;;;;;;;14.80;74.80;;;;;;4999450;28;19921;-79
2022/05/29 11:16:04;;;;;;;;;;;14.90;71.60;;;;;;5014486;28;19921;-82
2022/05/29 11:18:36;;;;;;;;;;;14.50;74.50;;;;;;5011268;28;19920;-80
2022/05/29 11:21:04;;;;;;;;;;;14.20;74.90;;;;;;5018299;28;19918;-81
2022/05/29 11:23:48;;;;;;;;;;;14.20;74.40;;;;;;5006453;28;19925;-80
2022/05/29 11:26:14;;;;;;;;;;;13.90;76.30;;;;;;5009700;28;20032;-82
2022/05/29 11:28:59;;;;;;;;;;;13.60;74.30;;;;;;5032798;28;19982;-84
2022/05/29 11:31:38;;;;;;;;;;;13.30;74.90;;;;;;5038179;28;19964;-83
2022/05/29 11:34:13;;;;;;;;;;;13.10;75.80;;;;;;5016409;28;19921;-82
2022/05/29 11:36:57;;;;;;;;;;;13.10;77.00;;;;;;5031810;28;20411;-80
2022/05/29 11:39:35;;;;;;;;;;;13.10;78.10;;;;;;4990160;28;19925;-81
2022/05/29 11:42:19;;;;;;;;;;;13.20;76.30;;;;;;5006861;28;19902;-79
2022/05/29 11:44:56;;;;;;;;;;;13.30;76.90;;;;;;5001936;28;20366;-83
2022/05/29 11:53:31;;;;;;;;;;;13.20;76.80;;;;;;4985572;28;19920;-81
2022/05/29 11:55:57;;;;;;;;;;;12.90;78.90;;;;;;4993875;28;19945;-82
2022/05/29 11:58:32;;;;;;;;;;;12.90;79.40;;;;;;4989846;28;19922;-81
2022/05/29 12:00:57;;;;;;;;;;;13.00;81.20;;;;;;4991569;28;19921;-82
2022/05/29 12:03:26;;;;;;;;;;;13.20;78.40;;;;;;5031439;28;20053;-81
2022/05/29 12:05:55;;;;;;;;;;;13.20;77.80;;;;;;4989609;28;19976;-80
2022/05/29 12:08:24;;;;;;;;;;;13.50;78.20;;;;;;4992076;28;19976;-81
2022/05/29 12:10:50;;;;;;;;;;;13.80;75.20;;;;;;4996134;28;19918;-80
2022/05/29 12:13:16;;;;;;;;;;;13.90;70.60;;;;;;5022568;28;19920;-80
2022/05/29 12:15:43;;;;;;;;;;;13.90;71.70;;;;;;4992231;28;20028;-81
2022/05/29 12:18:16;;;;;;;;;;;14.10;72.20;;;;;;4983997;28;19914;-81
2022/05/29 12:20:44;;;;;;;;;;;14.00;71.00;;;;;;4996865;28;19930;-80
2022/05/29 12:23:25;;;;;;;;;;;14.00;72.60;;;;;;5016474;28;19914;-80
2022/05/29 12:25:54;;;;;;;;;;;14.10;71.00;;;;;;4981852;28;19949;-81
2022/05/29 12:28:35;;;;;;;;;;;14.10;72.70;;;;;;4982331;28;20663;-80
2022/05/29 12:31:01;;;;;;;;;;;14.10;73.70;;;;;;4994467;28;19922;-79
2022/05/29 12:33:27;;;;;;;;;;;14.10;70.50;;;;;;4999485;28;19914;-81
2022/05/29 12:36:05;;;;;;;;;;;13.90;72.00;;;;;;5017675;28;19910;-80
2022/05/29 12:38:37;;;;;;;;;;;13.80;71.10;;;;;;4991689;28;20044;-81
2022/05/29 12:41:18;;;;;;;;;;;14.10;70.50;;;;;;4998584;28;19932;-80
2022/05/29 12:43:56;;;;;;;;;;;14.20;73.60;;;;;;4997316;28;19932;-80
2022/05/29 12:46:34;;;;;;;;;;;14.50;73.30;;;;;;4993235;28;19918;-81
2022/05/29 12:49:38;;;;;;;;;;;14.60;72.10;;;;;;5000154;28;19957;-81
2022/05/29 12:52:06;;;;;;;;;;;14.70;69.40;;;;;;4971648;28;19918;-81
2022/05/29 12:54:37;;;;;;;;;;;14.80;70.30;;;;;;4971052;28;20038;-82
2022/05/29 12:57:03;;;;;;;;;;;14.90;69.70;;;;;;4975559;28;20145;-82
2022/05/29 12:59:29;;;;;;;;;;;14.60;67.30;;;;;;5028882;28;20043;-82
2022/05/29 13:01:55;;;;;;;;;;;14.90;67.70;;;;;;5020864;28;19945;-80
2022/05/29 13:04:33;;;;;;;;;;;14.60;65.90;;;;;;5028510;28;19949;-81
2022/05/29 13:07:02;;;;;;;;;;;14.60;70.60;;;;;;5002911;28;19913;-80
2022/05/29 13:09:47;;;;;;;;;;;14.90;68.80;;;;;;5001508;28;19926;-80
2022/05/29 13:12:15;;;;;;;;;;;15.20;68.90;;;;;;5000888;28;19914;-79
2022/05/29 13:14:45;;;;;;;;;;;15.00;67.00;;;;;;5000020;28;19921;-77
2022/05/29 13:17:12;;;;;;;;;;;14.90;67.90;;;;;;5030483;28;19914;-79
2022/05/29 13:20:01;;;;;;;;;;;15.10;67.40;;;;;;5012331;28;19918;-79
2022/05/29 13:22:59;;;;;;;;;;;15.20;65.20;;;;;;4979936;28;19928;-77
2022/05/29 13:25:27;;;;;;;;;;;15.20;67.00;;;;;;4958257;28;19918;-78
2022/05/29 13:27:53;;;;;;;;;;;15.20;68.40;;;;;;4988599;28;19921;-82
2022/05/29 13:30:41;;;;;;;;;;;15.50;66.70;;;;;;5006023;28;20017;-79
2022/05/29 13:33:26;;;;;;;;;;;15.70;66.10;;;;;;4991368;28;19914;-78
2022/05/29 13:35:51;;;;;;;;;;;15.60;67.30;;;;;;5024832;28;19921;-80
2022/05/29 13:38:36;;;;;;;;;;;15.80;67.90;;;;;;5009443;28;20841;-79
2022/05/29 13:41:03;;;;;;;;;;;15.80;66.60;;;;;;4987865;28;19926;-81
2022/05/29 13:43:28;;;;;;;;;;;15.90;65.90;;;;;;4976734;28;20013;-80
2022/05/29 13:45:55;;;;;;;;;;;16.00;66.50;;;;;;4968410;28;20172;-82
2022/05/29 13:48:25;;;;;;;;;;;16.00;63.40;;;;;;5016960;28;19984;-80
2022/05/29 13:50:51;;;;;;;;;;;15.80;62.20;;;;;;5008680;28;20395;-80
2022/05/29 13:53:35;;;;;;;;;;;15.60;64.70;;;;;;5030458;28;19914;-81
2022/05/29 13:56:03;;;;;;;;;;;15.80;67.50;;;;;;4990845;28;19925;-82
2022/05/29 14:04:14;;;;;;;;;;;15.80;54.10;;;;;;4984943;28;19925;-81
2022/05/29 14:06:41;;;;;;;;;;;15.70;58.90;;;;;;4996618;28;19949;-80
2022/05/29 14:09:07;;;;;;;;;;;15.80;55.90;;;;;;5008680;28;19993;-79
2022/05/29 14:11:50;;;;;;;;;;;15.80;56.00;;;;;;4996707;28;19981;-80
2022/05/29 14:14:31;;;;;;;;;;;15.90;57.20;;;;;;4993193;28;20037;-80
2022/05/29 14:17:06;;;;;;;;;;;16.00;57.50;;;;;;4982251;28;20021;-79
2022/05/29 14:19:50;;;;;;;;;;;16.10;55.70;;;;;;5002260;28;19945;-79
2022/05/29 14:22:18;;;;;;;;;;;15.80;56.60;;;;;;4987404;28;20001;-79
2022/05/29 14:24:53;;;;;;;;;;;15.60;59.90;;;;;;5000024;28;19922;-79
2022/05/29 14:27:38;;;;;;;;;;;15.60;57.50;;;;;;4992057;28;19920;-80
2022/05/29 14:30:05;;;;;;;;;;;15.70;59.10;;;;;;5003445;28;19921;-80
2022/05/29 14:32:37;;;;;;;;;;;15.90;61.10;;;;;;4996227;28;19925;-80
2022/05/29 14:35:11;;;;;;;;;;;16.00;63.30;;;;;;5000636;28;19914;-80
2022/05/29 14:38:00;;;;;;;;;;;16.00;56.50;;;;;;4996102;28;20731;-79
2022/05/29 14:40:36;;;;;;;;;;;16.10;57.30;;;;;;4996475;28;19922;-80
2022/05/29 14:43:03;;;;;;;;;;;16.30;51.80;;;;;;5033642;28;19922;-81
2022/05/29 14:45:30;;;;;;;;;;;16.30;53.50;;;;;;4988328;28;19917;-79
2022/05/29 14:47:59;;;;;;;;;;;16.30;52.80;;;;;;5021494;28;19928;-81
2022/05/29 14:50:43;;;;;;;;;;;16.30;62.30;;;;;;4990546;28;19921;-80
2022/05/29 14:53:11;;;;;;;;;;;16.20;63.30;;;;;;4989643;28;19937;-79
2022/05/29 14:55:40;;;;;;;;;;;16.00;57.10;;;;;;4975525;28;19921;-80
2022/05/29 14:58:05;;;;;;;;;;;15.70;57.20;;;;;;4981302;28;19918;-78
2022/05/29 15:00:33;;;;;;;;;;;15.60;56.90;;;;;;4989016;28;19963;-80
2022/05/29 15:03:00;;;;;;;;;;;15.60;57.30;;;;;;5006299;28;19914;-79
2022/05/29 15:05:26;;;;;;;;;;;15.60;56.70;;;;;;4993673;28;20023;-80
2022/05/29 15:10:44;;;;;;;;;;;15.40;55.80;;;;;;4990093;28;19921;-78
2022/05/29 15:13:12;;;;;;;;;;;15.60;55.90;;;;;;5001562;28;19914;-78
2022/05/29 15:15:48;;;;;;;;;;;15.60;55.60;;;;;;5003690;28;19932;-81
2022/05/29 15:18:16;;;;;;;;;;;15.60;57.50;;;;;;5002418;28;19925;-80
2022/05/29 15:26:13;;;;;;;;;;;16.00;56.50;;;;;;4981651;28;20385;-77
2022/05/29 15:28:42;;;;;;;;;;;16.00;54.20;;;;;;4984140;28;20008;-80
2022/05/29 15:31:11;;;;;;;;;;;15.80;54.80;;;;;;4988456;28;19924;-81